sensor_id;sensor_type;location;lat;lon;timestamp;P1;durP1;ratioP1;P2;durP2;ratioP2
19560;SDS011;9927;47.792;10.616;2023-07-24T00:00:20;13.13;;;9.60;;
19560;SDS011;9927;47.792;10.616;2023-07-24T00:02:48;14.70;;;10.93;;
19560;SDS011;9927;47.792;10.616;2023-07-24T00:05:16;15.52;;;9.40;;
19560;SDS011;9927;47.792;10.616;2023-07-24T00:07:43;11.93;;;9.70;;
19560;SDS011;9927;47.792;10.616;2023-07-24T00:10:11;15.00;;;9.25;;
19560;SDS011;9927;47.792;10.616;2023-07-24T00:12:38;14.18;;;10.45;;
19560;SDS011;9927;47.792;10.616;2023-07-24T00:15:05;15.60;;;10.98;;
19560;SDS011;9927;47.792;10.616;2023-07-24T00:17:33;13.60;;;10.10;;
19560;SDS011;9927;47.792;10.616;2023-07-24T00:20:01;15.55;;;10.60;;
19560;SDS011;9927;47.792;10.616;2023-07-24T00:22:28;13.45;;;10.40;;
19560;SDS011;9927;47.792;10.616;2023-07-24T00:24:55;13.95;;;10.02;;
19560;SDS011;9927;47.792;10.616;2023-07-24T00:27:23;15.25;;;10.52;;
19560;SDS011;9927;47.792;10.616;2023-07-24T00:29:50;12.77;;;10.13;;
19560;SDS011;9927;47.792;10.616;2023-07-24T00:32:17;13.60;;;9.82;;
19560;SDS011;9927;47.792;10.616;2023-07-24T00:34:44;12.98;;;10.00;;
19560;SDS011;9927;47.792;10.616;2023-07-24T00:37:12;13.45;;;10.07;;
19560;SDS011;9927;47.792;10.616;2023-07-24T00:39:39;13.07;;;9.93;;
19560;SDS011;9927;47.792;10.616;2023-07-24T00:42:06;12.85;;;10.23;;
19560;SDS011;9927;47.792;10.616;2023-07-24T00:44:33;12.82;;;9.57;;
19560;SDS011;9927;47.792;10.616;2023-07-24T00:47:01;15.27;;;10.85;;
19560;SDS011;9927;47.792;10.616;2023-07-24T00:49:28;15.50;;;10.35;;
19560;SDS011;9927;47.792;10.616;2023-07-24T00:51:55;14.63;;;10.57;;
19560;SDS011;9927;47.792;10.616;2023-07-24T00:54:23;12.85;;;9.13;;
19560;SDS011;9927;47.792;10.616;2023-07-24T00:56:50;11.85;;;8.90;;
19560;SDS011;9927;47.792;10.616;2023-07-24T00:59:17;14.68;;;10.45;;
19560;SDS011;9927;47.792;10.616;2023-07-24T01:01:45;13.48;;;10.10;;
19560;SDS011;9927;47.792;10.616;2023-07-24T01:04:14;14.07;;;9.10;;
19560;SDS011;9927;47.792;10.616;2023-07-24T01:06:41;10.32;;;8.43;;
19560;SDS011;9927;47.792;10.616;2023-07-24T01:09:09;13.25;;;9.20;;
19560;SDS011;9927;47.792;10.616;2023-07-24T01:11:39;13.30;;;10.07;;
19560;SDS011;9927;47.792;10.616;2023-07-24T01:17:17;12.88;;;9.27;;
19560;SDS011;9927;47.792;10.616;2023-07-24T01:19:54;13.77;;;9.27;;
19560;SDS011;9927;47.792;10.616;2023-07-24T01:22:25;13.63;;;10.02;;
19560;SDS011;9927;47.792;10.616;2023-07-24T01:27:46;12.98;;;10.18;;
19560;SDS011;9927;47.792;10.616;2023-07-24T01:30:17;12.60;;;10.23;;
19560;SDS011;9927;47.792;10.616;2023-07-24T01:32:45;15.88;;;12.18;;
19560;SDS011;9927;47.792;10.616;2023-07-24T01:35:13;12.77;;;9.70;;
19560;SDS011;9927;47.792;10.616;2023-07-24T01:37:41;15.07;;;11.52;;
19560;SDS011;9927;47.792;10.616;2023-07-24T01:40:10;13.93;;;10.10;;
19560;SDS011;9927;47.792;10.616;2023-07-24T01:42:38;15.25;;;10.45;;
19560;SDS011;9927;47.792;10.616;2023-07-24T01:45:06;13.98;;;10.02;;
19560;SDS011;9927;47.792;10.616;2023-07-24T01:47:34;12.25;;;9.52;;
19560;SDS011;9927;47.792;10.616;2023-07-24T01:50:02;12.88;;;10.35;;
19560;SDS011;9927;47.792;10.616;2023-07-24T01:52:29;12.73;;;9.40;;
19560;SDS011;9927;47.792;10.616;2023-07-24T01:54:56;13.02;;;10.25;;
19560;SDS011;9927;47.792;10.616;2023-07-24T01:57:24;10.95;;;9.38;;
19560;SDS011;9927;47.792;10.616;2023-07-24T01:59:51;16.73;;;12.02;;
19560;SDS011;9927;47.792;10.616;2023-07-24T02:02:18;14.43;;;9.75;;
19560;SDS011;9927;47.792;10.616;2023-07-24T02:04:46;12.75;;;10.50;;
19560;SDS011;9927;47.792;10.616;2023-07-24T02:07:13;13.15;;;10.38;;
19560;SDS011;9927;47.792;10.616;2023-07-24T02:09:40;12.35;;;9.52;;
19560;SDS011;9927;47.792;10.616;2023-07-24T02:12:08;13.65;;;10.40;;
19560;SDS011;9927;47.792;10.616;2023-07-24T02:14:35;13.25;;;10.30;;
19560;SDS011;9927;47.792;10.616;2023-07-24T02:17:02;16.00;;;11.30;;
19560;SDS011;9927;47.792;10.616;2023-07-24T02:19:30;17.67;;;11.50;;
19560;SDS011;9927;47.792;10.616;2023-07-24T02:21:57;20.98;;;12.50;;
19560;SDS011;9927;47.792;10.616;2023-07-24T02:24:24;15.82;;;11.95;;
19560;SDS011;9927;47.792;10.616;2023-07-24T02:26:51;16.20;;;11.65;;
19560;SDS011;9927;47.792;10.616;2023-07-24T02:29:19;21.27;;;12.05;;
19560;SDS011;9927;47.792;10.616;2023-07-24T02:31:46;12.77;;;10.02;;
19560;SDS011;9927;47.792;10.616;2023-07-24T02:34:14;13.63;;;9.60;;
19560;SDS011;9927;47.792;10.616;2023-07-24T02:36:41;12.68;;;9.30;;
19560;SDS011;9927;47.792;10.616;2023-07-24T02:39:08;11.77;;;8.88;;
19560;SDS011;9927;47.792;10.616;2023-07-24T02:41:36;11.23;;;8.80;;
19560;SDS011;9927;47.792;10.616;2023-07-24T02:44:03;11.73;;;8.95;;
19560;SDS011;9927;47.792;10.616;2023-07-24T02:46:30;12.15;;;8.82;;
19560;SDS011;9927;47.792;10.616;2023-07-24T02:48:58;12.02;;;8.73;;
19560;SDS011;9927;47.792;10.616;2023-07-24T02:51:25;11.13;;;8.55;;
19560;SDS011;9927;47.792;10.616;2023-07-24T02:53:53;14.40;;;9.85;;
19560;SDS011;9927;47.792;10.616;2023-07-24T02:56:21;13.10;;;9.68;;
19560;SDS011;9927;47.792;10.616;2023-07-24T02:58:49;12.65;;;9.45;;
19560;SDS011;9927;47.792;10.616;2023-07-24T03:01:16;11.30;;;8.88;;
19560;SDS011;9927;47.792;10.616;2023-07-24T03:03:43;11.00;;;8.93;;
19560;SDS011;9927;47.792;10.616;2023-07-24T03:06:11;13.18;;;9.45;;
19560;SDS011;9927;47.792;10.616;2023-07-24T03:08:38;16.00;;;10.05;;
19560;SDS011;9927;47.792;10.616;2023-07-24T03:11:05;9.32;;;8.13;;
19560;SDS011;9927;47.792;10.616;2023-07-24T03:13:34;10.70;;;9.18;;
19560;SDS011;9927;47.792;10.616;2023-07-24T03:16:01;11.95;;;8.35;;
19560;SDS011;9927;47.792;10.616;2023-07-24T03:18:29;10.60;;;8.43;;
19560;SDS011;9927;47.792;10.616;2023-07-24T03:20:57;9.05;;;7.82;;
19560;SDS011;9927;47.792;10.616;2023-07-24T03:23:25;11.38;;;8.75;;
19560;SDS011;9927;47.792;10.616;2023-07-24T03:25:53;9.07;;;7.53;;
19560;SDS011;9927;47.792;10.616;2023-07-24T03:28:20;9.18;;;8.15;;
19560;SDS011;9927;47.792;10.616;2023-07-24T03:30:47;10.98;;;8.32;;
19560;SDS011;9927;47.792;10.616;2023-07-24T03:33:15;10.18;;;7.85;;
19560;SDS011;9927;47.792;10.616;2023-07-24T03:35:43;8.90;;;7.80;;
19560;SDS011;9927;47.792;10.616;2023-07-24T03:38:10;8.55;;;7.57;;
19560;SDS011;9927;47.792;10.616;2023-07-24T03:40:37;11.05;;;9.10;;
19560;SDS011;9927;47.792;10.616;2023-07-24T03:43:04;9.80;;;7.82;;
19560;SDS011;9927;47.792;10.616;2023-07-24T03:45:31;10.95;;;8.35;;
19560;SDS011;9927;47.792;10.616;2023-07-24T03:47:59;10.63;;;8.60;;
19560;SDS011;9927;47.792;10.616;2023-07-24T03:50:28;10.63;;;8.30;;
19560;SDS011;9927;47.792;10.616;2023-07-24T03:52:56;8.98;;;7.85;;
19560;SDS011;9927;47.792;10.616;2023-07-24T03:55:23;9.30;;;8.18;;
19560;SDS011;9927;47.792;10.616;2023-07-24T03:57:50;11.02;;;8.60;;
19560;SDS011;9927;47.792;10.616;2023-07-24T04:00:17;12.13;;;8.73;;
19560;SDS011;9927;47.792;10.616;2023-07-24T04:02:46;12.43;;;8.63;;
19560;SDS011;9927;47.792;10.616;2023-07-24T04:05:14;11.73;;;8.52;;
19560;SDS011;9927;47.792;10.616;2023-07-24T04:07:41;12.05;;;9.15;;
19560;SDS011;9927;47.792;10.616;2023-07-24T04:10:08;11.38;;;8.85;;
19560;SDS011;9927;47.792;10.616;2023-07-24T04:12:36;12.95;;;9.55;;
19560;SDS011;9927;47.792;10.616;2023-07-24T04:15:03;9.88;;;8.32;;
19560;SDS011;9927;47.792;10.616;2023-07-24T04:17:30;10.27;;;8.60;;
19560;SDS011;9927;47.792;10.616;2023-07-24T04:19:59;11.18;;;9.15;;
19560;SDS011;9927;47.792;10.616;2023-07-24T04:22:26;12.82;;;9.73;;
19560;SDS011;9927;47.792;10.616;2023-07-24T04:24:54;13.50;;;10.00;;
19560;SDS011;9927;47.792;10.616;2023-07-24T04:27:21;13.73;;;10.50;;
19560;SDS011;9927;47.792;10.616;2023-07-24T04:29:48;13.40;;;9.98;;
19560;SDS011;9927;47.792;10.616;2023-07-24T04:32:15;12.52;;;9.32;;
19560;SDS011;9927;47.792;10.616;2023-07-24T04:34:43;12.05;;;9.40;;
19560;SDS011;9927;47.792;10.616;2023-07-24T04:37:10;12.07;;;9.75;;
19560;SDS011;9927;47.792;10.616;2023-07-24T04:39:40;11.73;;;9.90;;
19560;SDS011;9927;47.792;10.616;2023-07-24T04:42:07;11.25;;;9.10;;
19560;SDS011;9927;47.792;10.616;2023-07-24T04:44:35;11.88;;;9.80;;
19560;SDS011;9927;47.792;10.616;2023-07-24T04:47:02;13.05;;;9.65;;
19560;SDS011;9927;47.792;10.616;2023-07-24T04:49:30;10.68;;;8.77;;
19560;SDS011;9927;47.792;10.616;2023-07-24T04:51:59;11.95;;;9.23;;
19560;SDS011;9927;47.792;10.616;2023-07-24T04:54:26;12.35;;;9.18;;
19560;SDS011;9927;47.792;10.616;2023-07-24T04:56:55;11.55;;;9.50;;
19560;SDS011;9927;47.792;10.616;2023-07-24T04:59:22;12.52;;;9.38;;
19560;SDS011;9927;47.792;10.616;2023-07-24T05:01:50;12.40;;;9.45;;
19560;SDS011;9927;47.792;10.616;2023-07-24T05:04:17;11.85;;;9.60;;
19560;SDS011;9927;47.792;10.616;2023-07-24T05:06:45;15.00;;;11.43;;
19560;SDS011;9927;47.792;10.616;2023-07-24T05:09:12;14.00;;;10.40;;
19560;SDS011;9927;47.792;10.616;2023-07-24T05:11:41;15.70;;;10.45;;
19560;SDS011;9927;47.792;10.616;2023-07-24T05:14:11;13.10;;;10.27;;
19560;SDS011;9927;47.792;10.616;2023-07-24T05:16:38;12.65;;;10.18;;
19560;SDS011;9927;47.792;10.616;2023-07-24T05:19:06;14.15;;;10.77;;
19560;SDS011;9927;47.792;10.616;2023-07-24T05:21:33;14.27;;;11.10;;
19560;SDS011;9927;47.792;10.616;2023-07-24T05:24:00;12.80;;;10.07;;
19560;SDS011;9927;47.792;10.616;2023-07-24T05:26:27;13.50;;;10.60;;
19560;SDS011;9927;47.792;10.616;2023-07-24T05:28:55;11.63;;;9.75;;
19560;SDS011;9927;47.792;10.616;2023-07-24T05:31:22;15.57;;;11.32;;
19560;SDS011;9927;47.792;10.616;2023-07-24T05:33:50;13.77;;;11.20;;
19560;SDS011;9927;47.792;10.616;2023-07-24T05:36:17;14.95;;;12.57;;
19560;SDS011;9927;47.792;10.616;2023-07-24T05:38:44;12.43;;;10.50;;
19560;SDS011;9927;47.792;10.616;2023-07-24T05:41:11;15.13;;;10.60;;
19560;SDS011;9927;47.792;10.616;2023-07-24T05:43:39;12.77;;;10.57;;
19560;SDS011;9927;47.792;10.616;2023-07-24T05:46:06;13.15;;;10.43;;
19560;SDS011;9927;47.792;10.616;2023-07-24T05:48:33;12.85;;;10.70;;
19560;SDS011;9927;47.792;10.616;2023-07-24T05:51:00;12.70;;;10.27;;
19560;SDS011;9927;47.792;10.616;2023-07-24T05:53:28;12.63;;;10.27;;
19560;SDS011;9927;47.792;10.616;2023-07-24T05:55:56;13.35;;;10.60;;
19560;SDS011;9927;47.792;10.616;2023-07-24T05:58:24;14.88;;;11.93;;
19560;SDS011;9927;47.792;10.616;2023-07-24T06:00:52;13.05;;;10.50;;
19560;SDS011;9927;47.792;10.616;2023-07-24T06:03:19;12.98;;;11.45;;
19560;SDS011;9927;47.792;10.616;2023-07-24T06:05:50;12.98;;;10.82;;
19560;SDS011;9927;47.792;10.616;2023-07-24T06:08:18;12.38;;;10.05;;
19560;SDS011;9927;47.792;10.616;2023-07-24T06:10:46;13.48;;;10.63;;
19560;SDS011;9927;47.792;10.616;2023-07-24T06:13:15;11.70;;;10.48;;
19560;SDS011;9927;47.792;10.616;2023-07-24T06:15:43;11.90;;;10.43;;
19560;SDS011;9927;47.792;10.616;2023-07-24T06:18:10;13.55;;;11.55;;
19560;SDS011;9927;47.792;10.616;2023-07-24T06:20:37;14.38;;;11.45;;
19560;SDS011;9927;47.792;10.616;2023-07-24T06:23:05;13.02;;;11.38;;
19560;SDS011;9927;47.792;10.616;2023-07-24T06:25:32;11.77;;;10.50;;
19560;SDS011;9927;47.792;10.616;2023-07-24T06:27:59;13.02;;;11.15;;
19560;SDS011;9927;47.792;10.616;2023-07-24T06:30:27;13.48;;;10.40;;
19560;SDS011;9927;47.792;10.616;2023-07-24T06:32:54;13.25;;;10.88;;
19560;SDS011;9927;47.792;10.616;2023-07-24T06:35:21;13.45;;;10.30;;
19560;SDS011;9927;47.792;10.616;2023-07-24T06:37:49;15.27;;;11.48;;
19560;SDS011;9927;47.792;10.616;2023-07-24T06:40:16;14.48;;;10.77;;
19560;SDS011;9927;47.792;10.616;2023-07-24T06:42:43;15.80;;;10.52;;
19560;SDS011;9927;47.792;10.616;2023-07-24T06:45:10;11.70;;;9.13;;
19560;SDS011;9927;47.792;10.616;2023-07-24T06:47:37;9.15;;;7.18;;
19560;SDS011;9927;47.792;10.616;2023-07-24T06:50:05;7.88;;;6.57;;
19560;SDS011;9927;47.792;10.616;2023-07-24T06:52:33;6.88;;;6.00;;
19560;SDS011;9927;47.792;10.616;2023-07-24T06:55:00;7.47;;;6.20;;
19560;SDS011;9927;47.792;10.616;2023-07-24T06:57:28;5.88;;;5.28;;
19560;SDS011;9927;47.792;10.616;2023-07-24T06:59:55;6.03;;;5.47;;
19560;SDS011;9927;47.792;10.616;2023-07-24T07:02:22;6.00;;;5.40;;
19560;SDS011;9927;47.792;10.616;2023-07-24T07:04:49;6.80;;;5.50;;
19560;SDS011;9927;47.792;10.616;2023-07-24T07:07:17;6.70;;;6.00;;
19560;SDS011;9927;47.792;10.616;2023-07-24T07:09:44;5.07;;;4.60;;
19560;SDS011;9927;47.792;10.616;2023-07-24T07:12:11;5.35;;;4.85;;
19560;SDS011;9927;47.792;10.616;2023-07-24T07:14:38;4.88;;;4.30;;
19560;SDS011;9927;47.792;10.616;2023-07-24T07:17:05;5.97;;;5.38;;
19560;SDS011;9927;47.792;10.616;2023-07-24T07:19:33;5.40;;;4.22;;
19560;SDS011;9927;47.792;10.616;2023-07-24T07:22:00;5.05;;;4.55;;
19560;SDS011;9927;47.792;10.616;2023-07-24T07:24:27;5.13;;;4.63;;
19560;SDS011;9927;47.792;10.616;2023-07-24T07:26:55;5.07;;;4.57;;
19560;SDS011;9927;47.792;10.616;2023-07-24T07:29:22;6.68;;;5.18;;
19560;SDS011;9927;47.792;10.616;2023-07-24T07:31:49;5.90;;;5.30;;
19560;SDS011;9927;47.792;10.616;2023-07-24T07:34:16;6.75;;;5.20;;
19560;SDS011;9927;47.792;10.616;2023-07-24T07:36:45;4.90;;;4.50;;
19560;SDS011;9927;47.792;10.616;2023-07-24T07:39:12;4.90;;;4.43;;
19560;SDS011;9927;47.792;10.616;2023-07-24T07:41:39;5.32;;;4.80;;
19560;SDS011;9927;47.792;10.616;2023-07-24T07:44:07;6.68;;;5.00;;
19560;SDS011;9927;47.792;10.616;2023-07-24T07:46:34;5.20;;;4.70;;
19560;SDS011;9927;47.792;10.616;2023-07-24T07:49:01;6.45;;;5.05;;
19560;SDS011;9927;47.792;10.616;2023-07-24T07:51:28;6.70;;;4.95;;
19560;SDS011;9927;47.792;10.616;2023-07-24T07:53:56;5.40;;;4.90;;
19560;SDS011;9927;47.792;10.616;2023-07-24T07:56:23;6.10;;;5.22;;
19560;SDS011;9927;47.792;10.616;2023-07-24T07:58:50;5.80;;;5.30;;
19560;SDS011;9927;47.792;10.616;2023-07-24T08:01:17;5.82;;;5.15;;
19560;SDS011;9927;47.792;10.616;2023-07-24T08:03:45;5.50;;;5.00;;
19560;SDS011;9927;47.792;10.616;2023-07-24T08:06:12;5.88;;;5.30;;
19560;SDS011;9927;47.792;10.616;2023-07-24T08:08:39;5.05;;;4.65;;
19560;SDS011;9927;47.792;10.616;2023-07-24T08:11:07;6.53;;;5.05;;
19560;SDS011;9927;47.792;10.616;2023-07-24T08:13:34;5.63;;;5.05;;
19560;SDS011;9927;47.792;10.616;2023-07-24T08:16:01;5.10;;;4.60;;
19560;SDS011;9927;47.792;10.616;2023-07-24T08:18:30;5.38;;;4.90;;
19560;SDS011;9927;47.792;10.616;2023-07-24T08:20:58;4.90;;;4.50;;
19560;SDS011;9927;47.792;10.616;2023-07-24T08:23:25;5.57;;;5.05;;
19560;SDS011;9927;47.792;10.616;2023-07-24T08:25:53;4.93;;;4.30;;
19560;SDS011;9927;47.792;10.616;2023-07-24T08:28:21;4.28;;;3.88;;
19560;SDS011;9927;47.792;10.616;2023-07-24T08:31:06;4.63;;;4.25;;
19560;SDS011;9927;47.792;10.616;2023-07-24T08:33:33;4.82;;;4.43;;
19560;SDS011;9927;47.792;10.616;2023-07-24T08:38:29;5.43;;;4.22;;
19560;SDS011;9927;47.792;10.616;2023-07-24T08:41:00;4.80;;;4.30;;
19560;SDS011;9927;47.792;10.616;2023-07-24T08:43:32;4.35;;;3.80;;
19560;SDS011;9927;47.792;10.616;2023-07-24T08:46:01;4.65;;;4.25;;
19560;SDS011;9927;47.792;10.616;2023-07-24T08:48:30;4.55;;;4.20;;
19560;SDS011;9927;47.792;10.616;2023-07-24T08:51:04;4.90;;;4.50;;
19560;SDS011;9927;47.792;10.616;2023-07-24T08:53:33;4.90;;;4.40;;
19560;SDS011;9927;47.792;10.616;2023-07-24T08:56:03;6.53;;;4.80;;
19560;SDS011;9927;47.792;10.616;2023-07-24T08:58:30;5.30;;;4.80;;
19560;SDS011;9927;47.792;10.616;2023-07-24T09:00:58;4.82;;;4.35;;
19560;SDS011;9927;47.792;10.616;2023-07-24T09:03:27;4.78;;;4.38;;
19560;SDS011;9927;47.792;10.616;2023-07-24T09:05:55;4.80;;;4.40;;
19560;SDS011;9927;47.792;10.616;2023-07-24T09:08:29;4.97;;;4.53;;
19560;SDS011;9927;47.792;10.616;2023-07-24T09:10:57;4.93;;;4.45;;
19560;SDS011;9927;47.792;10.616;2023-07-24T09:13:29;4.85;;;4.45;;
19560;SDS011;9927;47.792;10.616;2023-07-24T09:15:57;5.45;;;4.93;;
19560;SDS011;9927;47.792;10.616;2023-07-24T09:18:25;5.82;;;5.32;;
19560;SDS011;9927;47.792;10.616;2023-07-24T09:20:53;6.07;;;4.32;;
19560;SDS011;9927;47.792;10.616;2023-07-24T09:23:27;5.43;;;4.93;;
19560;SDS011;9927;47.792;10.616;2023-07-24T09:25:54;5.53;;;5.00;;
19560;SDS011;9927;47.792;10.616;2023-07-24T09:28:22;5.60;;;4.90;;
19560;SDS011;9927;47.792;10.616;2023-07-24T09:30:56;5.38;;;4.88;;
19560;SDS011;9927;47.792;10.616;2023-07-24T09:33:34;5.22;;;4.72;;
19560;SDS011;9927;47.792;10.616;2023-07-24T09:36:03;5.03;;;4.53;;
19560;SDS011;9927;47.792;10.616;2023-07-24T09:38:32;6.05;;;5.55;;
19560;SDS011;9927;47.792;10.616;2023-07-24T09:41:00;5.68;;;5.03;;
19560;SDS011;9927;47.792;10.616;2023-07-24T09:43:29;4.72;;;4.30;;
19560;SDS011;9927;47.792;10.616;2023-07-24T09:46:07;6.57;;;5.93;;
19560;SDS011;9927;47.792;10.616;2023-07-24T09:48:36;9.30;;;6.63;;
19560;SDS011;9927;47.792;10.616;2023-07-24T09:51:08;7.05;;;6.35;;
19560;SDS011;9927;47.792;10.616;2023-07-24T09:54:01;7.55;;;6.03;;
19560;SDS011;9927;47.792;10.616;2023-07-24T09:56:34;7.25;;;6.30;;
19560;SDS011;9927;47.792;10.616;2023-07-24T09:59:17;7.28;;;6.32;;
19560;SDS011;9927;47.792;10.616;2023-07-24T10:01:46;6.97;;;6.28;;
19560;SDS011;9927;47.792;10.616;2023-07-24T10:04:15;6.63;;;5.90;;
19560;SDS011;9927;47.792;10.616;2023-07-24T10:06:43;5.90;;;5.40;;
19560;SDS011;9927;47.792;10.616;2023-07-24T10:09:11;6.45;;;5.70;;
19560;SDS011;9927;47.792;10.616;2023-07-24T10:11:39;6.20;;;5.60;;
19560;SDS011;9927;47.792;10.616;2023-07-24T10:14:06;6.53;;;5.85;;
19560;SDS011;9927;47.792;10.616;2023-07-24T10:16:33;6.50;;;5.90;;
19560;SDS011;9927;47.792;10.616;2023-07-24T10:19:01;6.82;;;6.13;;
19560;SDS011;9927;47.792;10.616;2023-07-24T10:21:43;5.93;;;5.43;;
19560;SDS011;9927;47.792;10.616;2023-07-24T10:24:15;7.03;;;5.88;;
19560;SDS011;9927;47.792;10.616;2023-07-24T10:26:57;6.15;;;5.43;;
19560;SDS011;9927;47.792;10.616;2023-07-24T10:29:24;7.20;;;6.50;;
19560;SDS011;9927;47.792;10.616;2023-07-24T10:31:53;8.40;;;6.85;;
19560;SDS011;9927;47.792;10.616;2023-07-24T10:34:21;8.40;;;6.05;;
19560;SDS011;9927;47.792;10.616;2023-07-24T10:36:48;7.45;;;6.63;;
19560;SDS011;9927;47.792;10.616;2023-07-24T10:39:16;7.50;;;6.80;;
19560;SDS011;9927;47.792;10.616;2023-07-24T10:41:47;8.27;;;7.47;;
19560;SDS011;9927;47.792;10.616;2023-07-24T10:44:14;7.20;;;6.50;;
19560;SDS011;9927;47.792;10.616;2023-07-24T10:46:42;7.50;;;6.20;;
19560;SDS011;9927;47.792;10.616;2023-07-24T10:49:09;7.82;;;6.80;;
19560;SDS011;9927;47.792;10.616;2023-07-24T10:51:37;6.95;;;6.30;;
19560;SDS011;9927;47.792;10.616;2023-07-24T10:54:04;9.43;;;7.50;;
19560;SDS011;9927;47.792;10.616;2023-07-24T10:56:32;6.88;;;6.28;;
19560;SDS011;9927;47.792;10.616;2023-07-24T10:59:03;7.68;;;6.88;;
19560;SDS011;9927;47.792;10.616;2023-07-24T11:01:31;7.38;;;6.55;;
19560;SDS011;9927;47.792;10.616;2023-07-24T11:04:00;8.77;;;7.38;;
19560;SDS011;9927;47.792;10.616;2023-07-24T11:06:28;8.77;;;7.32;;
19560;SDS011;9927;47.792;10.616;2023-07-24T11:08:59;7.43;;;6.72;;
19560;SDS011;9927;47.792;10.616;2023-07-24T11:11:27;7.63;;;6.85;;
19560;SDS011;9927;47.792;10.616;2023-07-24T11:14:00;8.52;;;7.20;;
19560;SDS011;9927;47.792;10.616;2023-07-24T11:16:28;7.35;;;6.38;;
19560;SDS011;9927;47.792;10.616;2023-07-24T11:19:00;6.90;;;6.25;;
19560;SDS011;9927;47.792;10.616;2023-07-24T11:21:27;9.35;;;7.18;;
19560;SDS011;9927;47.792;10.616;2023-07-24T11:23:56;7.93;;;7.13;;
19560;SDS011;9927;47.792;10.616;2023-07-24T11:26:25;8.18;;;6.50;;
19560;SDS011;9927;47.792;10.616;2023-07-24T11:28:53;6.97;;;6.28;;
19560;SDS011;9927;47.792;10.616;2023-07-24T11:31:21;7.93;;;7.10;;
19560;SDS011;9927;47.792;10.616;2023-07-24T11:33:49;7.03;;;5.90;;
19560;SDS011;9927;47.792;10.616;2023-07-24T11:36:17;7.78;;;6.80;;
19560;SDS011;9927;47.792;10.616;2023-07-24T11:38:45;7.65;;;6.95;;
19560;SDS011;9927;47.792;10.616;2023-07-24T11:41:13;7.57;;;6.78;;
19560;SDS011;9927;47.792;10.616;2023-07-24T11:43:45;9.10;;;6.72;;
19560;SDS011;9927;47.792;10.616;2023-07-24T11:46:27;7.43;;;6.60;;
19560;SDS011;9927;47.792;10.616;2023-07-24T11:48:56;6.97;;;6.00;;
19560;SDS011;9927;47.792;10.616;2023-07-24T11:51:25;6.78;;;6.10;;
19560;SDS011;9927;47.792;10.616;2023-07-24T11:54:05;6.00;;;5.40;;
19560;SDS011;9927;47.792;10.616;2023-07-24T11:56:33;5.35;;;4.85;;
19560;SDS011;9927;47.792;10.616;2023-07-24T11:59:11;5.10;;;4.60;;
19560;SDS011;9927;47.792;10.616;2023-07-24T12:01:48;4.80;;;4.07;;
19560;SDS011;9927;47.792;10.616;2023-07-24T12:04:16;4.50;;;4.10;;
19560;SDS011;9927;47.792;10.616;2023-07-24T12:06:44;4.80;;;4.32;;
19560;SDS011;9927;47.792;10.616;2023-07-24T12:09:11;5.10;;;4.63;;
19560;SDS011;9927;47.792;10.616;2023-07-24T12:11:42;5.25;;;4.40;;
19560;SDS011;9927;47.792;10.616;2023-07-24T12:14:13;6.03;;;5.05;;
19560;SDS011;9927;47.792;10.616;2023-07-24T12:17:00;6.13;;;5.30;;
19560;SDS011;9927;47.792;10.616;2023-07-24T12:19:28;7.15;;;5.65;;
19560;SDS011;9927;47.792;10.616;2023-07-24T12:21:55;6.70;;;5.97;;
19560;SDS011;9927;47.792;10.616;2023-07-24T12:24:23;7.20;;;6.22;;
19560;SDS011;9927;47.792;10.616;2023-07-24T12:26:50;6.95;;;5.20;;
19560;SDS011;9927;47.792;10.616;2023-07-24T12:29:17;6.60;;;5.93;;
19560;SDS011;9927;47.792;10.616;2023-07-24T12:31:45;6.10;;;5.50;;
19560;SDS011;9927;47.792;10.616;2023-07-24T12:34:12;5.68;;;5.15;;
19560;SDS011;9927;47.792;10.616;2023-07-24T12:40:55;5.70;;;5.13;;
19560;SDS011;9927;47.792;10.616;2023-07-24T12:43:22;5.65;;;5.15;;
19560;SDS011;9927;47.792;10.616;2023-07-24T12:45:49;6.22;;;5.40;;
19560;SDS011;9927;47.792;10.616;2023-07-24T12:48:16;4.78;;;4.38;;
19560;SDS011;9927;47.792;10.616;2023-07-24T12:50:44;6.05;;;5.45;;
19560;SDS011;9927;47.792;10.616;2023-07-24T12:53:11;4.88;;;4.45;;
19560;SDS011;9927;47.792;10.616;2023-07-24T12:55:46;5.18;;;4.72;;
19560;SDS011;9927;47.792;10.616;2023-07-24T12:58:13;5.10;;;4.70;;
19560;SDS011;9927;47.792;10.616;2023-07-24T13:00:41;6.53;;;5.78;;
19560;SDS011;9927;47.792;10.616;2023-07-24T13:03:08;6.88;;;5.38;;
19560;SDS011;9927;47.792;10.616;2023-07-24T13:05:37;5.28;;;4.78;;
19560;SDS011;9927;47.792;10.616;2023-07-24T13:08:05;5.32;;;4.55;;
19560;SDS011;9927;47.792;10.616;2023-07-24T13:10:33;5.47;;;4.75;;
19560;SDS011;9927;47.792;10.616;2023-07-24T13:13:01;7.18;;;5.32;;
19560;SDS011;9927;47.792;10.616;2023-07-24T13:15:28;4.85;;;4.45;;
19560;SDS011;9927;47.792;10.616;2023-07-24T13:17:56;5.80;;;5.20;;
19560;SDS011;9927;47.792;10.616;2023-07-24T13:20:25;6.32;;;5.00;;
19560;SDS011;9927;47.792;10.616;2023-07-24T13:22:53;5.88;;;5.22;;
19560;SDS011;9927;47.792;10.616;2023-07-24T13:25:20;5.78;;;5.10;;
19560;SDS011;9927;47.792;10.616;2023-07-24T13:27:47;4.90;;;4.50;;
19560;SDS011;9927;47.792;10.616;2023-07-24T13:30:15;5.80;;;4.80;;
19560;SDS011;9927;47.792;10.616;2023-07-24T13:32:42;5.72;;;5.22;;
19560;SDS011;9927;47.792;10.616;2023-07-24T13:35:10;5.63;;;5.13;;
19560;SDS011;9927;47.792;10.616;2023-07-24T13:37:37;5.43;;;4.93;;
19560;SDS011;9927;47.792;10.616;2023-07-24T13:40:05;7.78;;;5.53;;
19560;SDS011;9927;47.792;10.616;2023-07-24T13:42:33;4.95;;;4.55;;
19560;SDS011;9927;47.792;10.616;2023-07-24T13:45:00;5.88;;;5.35;;
19560;SDS011;9927;47.792;10.616;2023-07-24T13:47:27;5.78;;;5.20;;
19560;SDS011;9927;47.792;10.616;2023-07-24T13:49:55;6.13;;;5.30;;
19560;SDS011;9927;47.792;10.616;2023-07-24T13:52:22;5.82;;;5.20;;
19560;SDS011;9927;47.792;10.616;2023-07-24T13:54:49;5.80;;;5.30;;
19560;SDS011;9927;47.792;10.616;2023-07-24T13:57:16;5.38;;;4.88;;
19560;SDS011;9927;47.792;10.616;2023-07-24T13:59:44;5.55;;;5.05;;
19560;SDS011;9927;47.792;10.616;2023-07-24T14:02:11;5.80;;;5.05;;
19560;SDS011;9927;47.792;10.616;2023-07-24T14:04:39;6.18;;;5.05;;
19560;SDS011;9927;47.792;10.616;2023-07-24T14:07:07;5.75;;;5.25;;
19560;SDS011;9927;47.792;10.616;2023-07-24T14:09:34;7.18;;;5.32;;
19560;SDS011;9927;47.792;10.616;2023-07-24T14:12:01;5.57;;;5.07;;
19560;SDS011;9927;47.792;10.616;2023-07-24T14:14:29;5.20;;;4.70;;
19560;SDS011;9927;47.792;10.616;2023-07-24T14:16:56;5.70;;;5.05;;
19560;SDS011;9927;47.792;10.616;2023-07-24T14:19:24;6.95;;;5.80;;
19560;SDS011;9927;47.792;10.616;2023-07-24T14:21:51;5.50;;;4.90;;
19560;SDS011;9927;47.792;10.616;2023-07-24T14:24:18;7.50;;;5.97;;
19560;SDS011;9927;47.792;10.616;2023-07-24T14:26:46;6.93;;;5.30;;
19560;SDS011;9927;47.792;10.616;2023-07-24T14:29:13;5.90;;;5.30;;
19560;SDS011;9927;47.792;10.616;2023-07-24T14:31:43;5.30;;;4.80;;
19560;SDS011;9927;47.792;10.616;2023-07-24T14:34:11;5.00;;;4.60;;
19560;SDS011;9927;47.792;10.616;2023-07-24T14:36:39;5.68;;;5.18;;
19560;SDS011;9927;47.792;10.616;2023-07-24T14:39:06;6.10;;;5.50;;
19560;SDS011;9927;47.792;10.616;2023-07-24T14:41:34;4.90;;;4.50;;
19560;SDS011;9927;47.792;10.616;2023-07-24T14:44:02;7.78;;;5.55;;
19560;SDS011;9927;47.792;10.616;2023-07-24T14:46:29;5.70;;;5.20;;
19560;SDS011;9927;47.792;10.616;2023-07-24T14:48:56;5.22;;;4.72;;
19560;SDS011;9927;47.792;10.616;2023-07-24T14:51:24;5.15;;;4.63;;
19560;SDS011;9927;47.792;10.616;2023-07-24T14:53:51;5.25;;;4.75;;
19560;SDS011;9927;47.792;10.616;2023-07-24T14:56:19;4.40;;;4.00;;